X  Close Metar Aviation Weather Data        LEGR Granada
Temperature
32°C Temperature
13°C Dewpoint
31% Humidity



Wind
11 KM/H
7 MPH
3 M/S
6 KTS



240°
WSW
Current Conditions

Mostly Sunny Mostly Sunny
Pressure 1011 (hPa) - 29.87 (inHg)
Visibility 7 (mile) - 11 (km)
Airport
Airport-code LEGR

Location: Granada
Distance: 56 (km)

Metar:
METAR LEGR 121930Z 24006KT 210V270 CAVOK 32/13 Q1016

Time: 12-07-2020 21:30 CEST